sensor_id;sensor_type;location;lat;lon;timestamp;P1;durP1;ratioP1;P2;durP2;ratioP2
68284;SDS011;55114;52.052;5.238;2023-03-01T00:00:05;14.13;;;6.13;;
68284;SDS011;55114;52.052;5.238;2023-03-01T00:02:33;13.77;;;6.03;;
68284;SDS011;55114;52.052;5.238;2023-03-01T00:05:00;14.60;;;6.32;;
68284;SDS011;55114;52.052;5.238;2023-03-01T00:07:28;14.40;;;5.63;;
68284;SDS011;55114;52.052;5.238;2023-03-01T00:09:55;14.77;;;6.38;;
68284;SDS011;55114;52.052;5.238;2023-03-01T00:12:22;15.68;;;5.78;;
68284;SDS011;55114;52.052;5.238;2023-03-01T00:14:50;15.15;;;6.05;;
68284;SDS011;55114;52.052;5.238;2023-03-01T00:17:17;17.85;;;6.35;;
68284;SDS011;55114;52.052;5.238;2023-03-01T00:19:44;14.13;;;6.30;;
68284;SDS011;55114;52.052;5.238;2023-03-01T00:22:12;14.35;;;5.70;;
68284;SDS011;55114;52.052;5.238;2023-03-01T00:24:39;16.70;;;6.57;;
68284;SDS011;55114;52.052;5.238;2023-03-01T00:27:06;15.15;;;6.43;;
68284;SDS011;55114;52.052;5.238;2023-03-01T00:29:34;16.45;;;6.28;;
68284;SDS011;55114;52.052;5.238;2023-03-01T00:32:01;15.27;;;6.47;;
68284;SDS011;55114;52.052;5.238;2023-03-01T00:34:28;13.73;;;6.22;;
68284;SDS011;55114;52.052;5.238;2023-03-01T00:36:56;14.80;;;5.78;;
68284;SDS011;55114;52.052;5.238;2023-03-01T00:39:31;14.57;;;6.50;;
68284;SDS011;55114;52.052;5.238;2023-03-01T00:41:59;14.95;;;6.15;;
68284;SDS011;55114;52.052;5.238;2023-03-01T00:44:26;13.70;;;6.47;;
68284;SDS011;55114;52.052;5.238;2023-03-01T00:46:54;14.13;;;6.15;;
68284;SDS011;55114;52.052;5.238;2023-03-01T00:49:21;15.13;;;6.35;;
68284;SDS011;55114;52.052;5.238;2023-03-01T00:51:50;14.68;;;6.20;;
68284;SDS011;55114;52.052;5.238;2023-03-01T00:54:17;15.88;;;6.10;;
68284;SDS011;55114;52.052;5.238;2023-03-01T00:56:45;13.13;;;5.57;;
68284;SDS011;55114;52.052;5.238;2023-03-01T00:59:12;13.25;;;6.20;;
68284;SDS011;55114;52.052;5.238;2023-03-01T01:01:39;15.23;;;6.38;;
68284;SDS011;55114;52.052;5.238;2023-03-01T01:04:08;15.18;;;6.20;;
68284;SDS011;55114;52.052;5.238;2023-03-01T01:06:37;14.55;;;5.85;;
68284;SDS011;55114;52.052;5.238;2023-03-01T01:09:05;13.70;;;6.33;;
68284;SDS011;55114;52.052;5.238;2023-03-01T01:11:33;16.00;;;6.47;;
68284;SDS011;55114;52.052;5.238;2023-03-01T01:14:03;15.65;;;6.00;;
68284;SDS011;55114;52.052;5.238;2023-03-01T01:16:31;18.67;;;6.82;;
68284;SDS011;55114;52.052;5.238;2023-03-01T01:18:58;15.50;;;6.32;;
68284;SDS011;55114;52.052;5.238;2023-03-01T01:21:26;15.90;;;7.00;;
68284;SDS011;55114;52.052;5.238;2023-03-01T01:23:53;14.52;;;6.60;;
68284;SDS011;55114;52.052;5.238;2023-03-01T01:26:22;15.48;;;6.88;;
68284;SDS011;55114;52.052;5.238;2023-03-01T01:28:50;17.50;;;7.03;;
68284;SDS011;55114;52.052;5.238;2023-03-01T01:31:18;16.25;;;6.40;;
68284;SDS011;55114;52.052;5.238;2023-03-01T01:33:45;16.83;;;6.87;;
68284;SDS011;55114;52.052;5.238;2023-03-01T01:36:13;14.95;;;6.40;;
68284;SDS011;55114;52.052;5.238;2023-03-01T01:38:44;14.98;;;6.47;;
68284;SDS011;55114;52.052;5.238;2023-03-01T01:41:13;15.35;;;6.57;;
68284;SDS011;55114;52.052;5.238;2023-03-01T01:43:41;18.05;;;6.80;;
68284;SDS011;55114;52.052;5.238;2023-03-01T01:49:07;16.83;;;6.72;;
68284;SDS011;55114;52.052;5.238;2023-03-01T01:51:35;17.67;;;6.97;;
68284;SDS011;55114;52.052;5.238;2023-03-01T01:54:11;15.60;;;7.07;;
68284;SDS011;55114;52.052;5.238;2023-03-01T01:56:40;16.90;;;6.78;;
68284;SDS011;55114;52.052;5.238;2023-03-01T01:59:09;16.83;;;7.03;;
68284;SDS011;55114;52.052;5.238;2023-03-01T02:01:36;15.95;;;6.75;;
68284;SDS011;55114;52.052;5.238;2023-03-01T02:04:04;17.38;;;8.00;;
68284;SDS011;55114;52.052;5.238;2023-03-01T02:06:48;17.83;;;7.15;;
68284;SDS011;55114;52.052;5.238;2023-03-01T02:09:18;16.40;;;7.13;;
68284;SDS011;55114;52.052;5.238;2023-03-01T02:11:48;17.50;;;7.83;;
68284;SDS011;55114;52.052;5.238;2023-03-01T02:14:16;16.98;;;7.47;;
68284;SDS011;55114;52.052;5.238;2023-03-01T02:16:44;19.05;;;7.60;;
68284;SDS011;55114;52.052;5.238;2023-03-01T02:19:13;17.67;;;7.55;;
68284;SDS011;55114;52.052;5.238;2023-03-01T02:21:56;16.42;;;7.03;;
68284;SDS011;55114;52.052;5.238;2023-03-01T02:27:17;17.90;;;7.38;;
68284;SDS011;55114;52.052;5.238;2023-03-01T02:29:51;18.58;;;7.25;;
68284;SDS011;55114;52.052;5.238;2023-03-01T02:32:18;18.25;;;7.32;;
68284;SDS011;55114;52.052;5.238;2023-03-01T02:34:54;18.33;;;8.05;;
68284;SDS011;55114;52.052;5.238;2023-03-01T02:37:22;17.23;;;6.93;;
68284;SDS011;55114;52.052;5.238;2023-03-01T02:39:56;17.05;;;7.05;;
68284;SDS011;55114;52.052;5.238;2023-03-01T02:42:30;15.73;;;7.15;;
68284;SDS011;55114;52.052;5.238;2023-03-01T02:44:58;18.00;;;7.15;;
68284;SDS011;55114;52.052;5.238;2023-03-01T02:47:25;19.20;;;7.63;;
68284;SDS011;55114;52.052;5.238;2023-03-01T02:49:53;16.07;;;7.10;;
68284;SDS011;55114;52.052;5.238;2023-03-01T02:55:01;16.58;;;7.30;;
68284;SDS011;55114;52.052;5.238;2023-03-01T02:57:29;18.90;;;7.32;;
68284;SDS011;55114;52.052;5.238;2023-03-01T02:59:59;17.70;;;7.38;;
68284;SDS011;55114;52.052;5.238;2023-03-01T03:02:33;19.30;;;7.63;;
68284;SDS011;55114;52.052;5.238;2023-03-01T03:07:33;18.90;;;7.30;;
68284;SDS011;55114;52.052;5.238;2023-03-01T03:10:01;16.70;;;6.95;;
68284;SDS011;55114;52.052;5.238;2023-03-01T03:12:28;17.05;;;7.20;;
68284;SDS011;55114;52.052;5.238;2023-03-01T03:14:55;18.47;;;7.67;;
68284;SDS011;55114;52.052;5.238;2023-03-01T03:17:22;18.42;;;7.18;;
68284;SDS011;55114;52.052;5.238;2023-03-01T03:19:50;18.63;;;7.03;;
68284;SDS011;55114;52.052;5.238;2023-03-01T03:22:17;18.05;;;7.20;;
68284;SDS011;55114;52.052;5.238;2023-03-01T03:24:44;19.52;;;7.65;;
68284;SDS011;55114;52.052;5.238;2023-03-01T03:27:12;17.13;;;7.40;;
68284;SDS011;55114;52.052;5.238;2023-03-01T03:29:39;17.25;;;7.18;;
68284;SDS011;55114;52.052;5.238;2023-03-01T03:32:06;19.60;;;7.63;;
68284;SDS011;55114;52.052;5.238;2023-03-01T03:34:33;16.50;;;7.45;;
68284;SDS011;55114;52.052;5.238;2023-03-01T03:37:01;18.38;;;7.55;;
68284;SDS011;55114;52.052;5.238;2023-03-01T03:39:28;17.97;;;7.07;;
68284;SDS011;55114;52.052;5.238;2023-03-01T03:42:01;17.17;;;6.63;;
68284;SDS011;55114;52.052;5.238;2023-03-01T03:44:28;17.08;;;7.20;;
68284;SDS011;55114;52.052;5.238;2023-03-01T03:46:55;18.25;;;7.07;;
68284;SDS011;55114;52.052;5.238;2023-03-01T03:49:22;16.50;;;7.05;;
68284;SDS011;55114;52.052;5.238;2023-03-01T03:51:50;17.37;;;7.40;;
68284;SDS011;55114;52.052;5.238;2023-03-01T03:54:17;19.90;;;7.32;;
68284;SDS011;55114;52.052;5.238;2023-03-01T03:56:44;16.45;;;6.82;;
68284;SDS011;55114;52.052;5.238;2023-03-01T03:59:12;17.40;;;7.20;;
68284;SDS011;55114;52.052;5.238;2023-03-01T04:01:41;17.17;;;7.00;;
68284;SDS011;55114;52.052;5.238;2023-03-01T04:04:08;19.20;;;7.40;;
68284;SDS011;55114;52.052;5.238;2023-03-01T04:06:36;18.73;;;7.35;;
68284;SDS011;55114;52.052;5.238;2023-03-01T04:09:03;19.52;;;7.68;;
68284;SDS011;55114;52.052;5.238;2023-03-01T04:11:30;17.52;;;7.30;;
68284;SDS011;55114;52.052;5.238;2023-03-01T04:14:02;17.42;;;7.68;;
68284;SDS011;55114;52.052;5.238;2023-03-01T04:16:30;18.70;;;7.20;;
68284;SDS011;55114;52.052;5.238;2023-03-01T04:18:58;17.77;;;7.53;;
68284;SDS011;55114;52.052;5.238;2023-03-01T04:21:26;16.60;;;7.18;;
68284;SDS011;55114;52.052;5.238;2023-03-01T04:23:53;16.65;;;6.68;;
68284;SDS011;55114;52.052;5.238;2023-03-01T04:26:21;15.50;;;6.38;;
68284;SDS011;55114;52.052;5.238;2023-03-01T04:28:48;16.67;;;7.10;;
68284;SDS011;55114;52.052;5.238;2023-03-01T04:31:17;17.95;;;6.90;;
68284;SDS011;55114;52.052;5.238;2023-03-01T04:33:48;15.40;;;6.60;;
68284;SDS011;55114;52.052;5.238;2023-03-01T04:36:18;19.38;;;7.05;;
68284;SDS011;55114;52.052;5.238;2023-03-01T04:38:45;18.27;;;7.30;;
68284;SDS011;55114;52.052;5.238;2023-03-01T04:41:17;16.17;;;7.10;;
68284;SDS011;55114;52.052;5.238;2023-03-01T04:43:45;16.92;;;7.05;;
68284;SDS011;55114;52.052;5.238;2023-03-01T04:46:13;15.20;;;6.80;;
68284;SDS011;55114;52.052;5.238;2023-03-01T04:48:41;17.55;;;7.22;;
68284;SDS011;55114;52.052;5.238;2023-03-01T04:51:09;17.10;;;6.93;;
68284;SDS011;55114;52.052;5.238;2023-03-01T04:53:40;20.43;;;7.67;;
68284;SDS011;55114;52.052;5.238;2023-03-01T04:56:08;17.63;;;7.05;;
68284;SDS011;55114;52.052;5.238;2023-03-01T04:58:36;18.33;;;7.10;;
68284;SDS011;55114;52.052;5.238;2023-03-01T05:01:13;17.38;;;6.97;;
68284;SDS011;55114;52.052;5.238;2023-03-01T05:03:42;18.13;;;7.43;;
68284;SDS011;55114;52.052;5.238;2023-03-01T05:06:09;16.87;;;6.97;;
68284;SDS011;55114;52.052;5.238;2023-03-01T05:08:37;18.75;;;7.03;;
68284;SDS011;55114;52.052;5.238;2023-03-01T05:11:05;16.75;;;6.82;;
68284;SDS011;55114;52.052;5.238;2023-03-01T05:13:35;17.45;;;6.80;;
68284;SDS011;55114;52.052;5.238;2023-03-01T05:16:03;17.80;;;6.78;;
68284;SDS011;55114;52.052;5.238;2023-03-01T05:18:32;19.43;;;7.53;;
68284;SDS011;55114;52.052;5.238;2023-03-01T05:21:06;16.73;;;7.05;;
68284;SDS011;55114;52.052;5.238;2023-03-01T05:23:34;18.77;;;6.97;;
68284;SDS011;55114;52.052;5.238;2023-03-01T05:26:04;19.80;;;7.40;;
68284;SDS011;55114;52.052;5.238;2023-03-01T05:28:36;16.35;;;6.68;;
68284;SDS011;55114;52.052;5.238;2023-03-01T05:31:04;16.30;;;6.83;;
68284;SDS011;55114;52.052;5.238;2023-03-01T05:33:40;19.75;;;6.40;;
68284;SDS011;55114;52.052;5.238;2023-03-01T05:36:07;19.52;;;7.28;;
68284;SDS011;55114;52.052;5.238;2023-03-01T05:38:35;19.08;;;7.78;;
68284;SDS011;55114;52.052;5.238;2023-03-01T05:41:03;19.95;;;7.53;;
68284;SDS011;55114;52.052;5.238;2023-03-01T05:43:31;16.57;;;6.93;;
68284;SDS011;55114;52.052;5.238;2023-03-01T05:46:01;20.17;;;7.45;;
68284;SDS011;55114;52.052;5.238;2023-03-01T05:48:30;18.35;;;7.03;;
68284;SDS011;55114;52.052;5.238;2023-03-01T05:50:59;18.70;;;6.97;;
68284;SDS011;55114;52.052;5.238;2023-03-01T05:53:26;20.15;;;7.45;;
68284;SDS011;55114;52.052;5.238;2023-03-01T05:55:54;19.43;;;7.67;;
68284;SDS011;55114;52.052;5.238;2023-03-01T05:58:21;20.48;;;7.25;;
68284;SDS011;55114;52.052;5.238;2023-03-01T06:00:49;18.63;;;7.35;;
68284;SDS011;55114;52.052;5.238;2023-03-01T06:03:19;19.77;;;7.32;;
68284;SDS011;55114;52.052;5.238;2023-03-01T06:05:47;18.48;;;7.28;;
68284;SDS011;55114;52.052;5.238;2023-03-01T06:08:14;18.87;;;7.67;;
68284;SDS011;55114;52.052;5.238;2023-03-01T06:10:41;20.42;;;7.72;;
68284;SDS011;55114;52.052;5.238;2023-03-01T06:13:08;19.40;;;7.78;;
68284;SDS011;55114;52.052;5.238;2023-03-01T06:15:36;20.80;;;7.93;;
68284;SDS011;55114;52.052;5.238;2023-03-01T06:18:03;19.02;;;8.20;;
68284;SDS011;55114;52.052;5.238;2023-03-01T06:20:30;18.50;;;7.70;;
68284;SDS011;55114;52.052;5.238;2023-03-01T06:22:59;22.08;;;8.18;;
68284;SDS011;55114;52.052;5.238;2023-03-01T06:25:26;17.90;;;7.53;;
68284;SDS011;55114;52.052;5.238;2023-03-01T06:27:54;21.45;;;8.77;;
68284;SDS011;55114;52.052;5.238;2023-03-01T06:30:22;19.27;;;8.07;;
68284;SDS011;55114;52.052;5.238;2023-03-01T06:32:49;20.13;;;8.10;;
68284;SDS011;55114;52.052;5.238;2023-03-01T06:35:18;20.05;;;7.72;;
68284;SDS011;55114;52.052;5.238;2023-03-01T06:37:46;18.42;;;7.13;;
68284;SDS011;55114;52.052;5.238;2023-03-01T06:40:14;17.40;;;7.38;;
68284;SDS011;55114;52.052;5.238;2023-03-01T06:42:43;19.35;;;7.45;;
68284;SDS011;55114;52.052;5.238;2023-03-01T06:45:11;19.00;;;6.83;;
68284;SDS011;55114;52.052;5.238;2023-03-01T06:47:38;18.38;;;6.80;;
68284;SDS011;55114;52.052;5.238;2023-03-01T06:50:06;15.35;;;6.45;;
68284;SDS011;55114;52.052;5.238;2023-03-01T06:52:33;19.55;;;7.40;;
68284;SDS011;55114;52.052;5.238;2023-03-01T06:55:01;16.05;;;6.80;;
68284;SDS011;55114;52.052;5.238;2023-03-01T06:57:28;16.10;;;6.70;;
68284;SDS011;55114;52.052;5.238;2023-03-01T06:59:55;16.05;;;6.43;;
68284;SDS011;55114;52.052;5.238;2023-03-01T07:02:23;16.75;;;6.35;;
68284;SDS011;55114;52.052;5.238;2023-03-01T07:04:50;17.45;;;6.63;;
68284;SDS011;55114;52.052;5.238;2023-03-01T07:07:18;16.95;;;6.75;;
68284;SDS011;55114;52.052;5.238;2023-03-01T07:09:45;22.03;;;6.73;;
68284;SDS011;55114;52.052;5.238;2023-03-01T07:12:13;17.75;;;6.68;;
68284;SDS011;55114;52.052;5.238;2023-03-01T07:14:40;17.77;;;6.95;;
68284;SDS011;55114;52.052;5.238;2023-03-01T07:17:07;17.05;;;6.80;;
68284;SDS011;55114;52.052;5.238;2023-03-01T07:19:35;16.02;;;6.72;;
68284;SDS011;55114;52.052;5.238;2023-03-01T07:22:03;18.60;;;6.53;;
68284;SDS011;55114;52.052;5.238;2023-03-01T07:24:30;16.58;;;6.30;;
68284;SDS011;55114;52.052;5.238;2023-03-01T07:26:58;16.35;;;6.18;;
68284;SDS011;55114;52.052;5.238;2023-03-01T07:29:25;16.83;;;6.65;;
68284;SDS011;55114;52.052;5.238;2023-03-01T07:31:52;18.90;;;6.75;;
68284;SDS011;55114;52.052;5.238;2023-03-01T07:34:20;18.17;;;6.67;;
68284;SDS011;55114;52.052;5.238;2023-03-01T07:36:47;15.23;;;6.20;;
68284;SDS011;55114;52.052;5.238;2023-03-01T07:39:14;13.48;;;5.75;;
68284;SDS011;55114;52.052;5.238;2023-03-01T07:41:44;14.45;;;6.05;;
68284;SDS011;55114;52.052;5.238;2023-03-01T07:44:13;16.15;;;6.53;;
68284;SDS011;55114;52.052;5.238;2023-03-01T07:46:41;13.63;;;6.27;;
68284;SDS011;55114;52.052;5.238;2023-03-01T07:49:10;13.77;;;6.10;;
68284;SDS011;55114;52.052;5.238;2023-03-01T07:51:37;12.90;;;5.45;;
68284;SDS011;55114;52.052;5.238;2023-03-01T07:54:05;14.82;;;6.50;;
68284;SDS011;55114;52.052;5.238;2023-03-01T07:56:32;14.50;;;6.50;;
68284;SDS011;55114;52.052;5.238;2023-03-01T07:59:00;14.87;;;6.30;;
68284;SDS011;55114;52.052;5.238;2023-03-01T08:01:27;13.85;;;6.45;;
68284;SDS011;55114;52.052;5.238;2023-03-01T08:03:55;14.85;;;6.85;;
68284;SDS011;55114;52.052;5.238;2023-03-01T08:06:24;13.82;;;6.00;;
68284;SDS011;55114;52.052;5.238;2023-03-01T08:08:51;14.75;;;6.57;;
68284;SDS011;55114;52.052;5.238;2023-03-01T08:11:18;13.30;;;6.13;;
68284;SDS011;55114;52.052;5.238;2023-03-01T08:13:46;14.45;;;6.43;;
68284;SDS011;55114;52.052;5.238;2023-03-01T08:16:17;14.20;;;6.20;;
68284;SDS011;55114;52.052;5.238;2023-03-01T08:18:44;13.27;;;5.90;;
68284;SDS011;55114;52.052;5.238;2023-03-01T08:21:13;13.88;;;5.50;;
68284;SDS011;55114;52.052;5.238;2023-03-01T08:23:41;18.48;;;6.07;;
68284;SDS011;55114;52.052;5.238;2023-03-01T08:26:11;15.50;;;5.70;;
68284;SDS011;55114;52.052;5.238;2023-03-01T08:28:39;14.40;;;5.03;;
68284;SDS011;55114;52.052;5.238;2023-03-01T08:31:40;10.55;;;4.50;;
68284;SDS011;55114;52.052;5.238;2023-03-01T08:34:02;9.77;;;4.97;;
68284;SDS011;55114;52.052;5.238;2023-03-01T08:36:31;8.82;;;4.00;;
68284;SDS011;55114;52.052;5.238;2023-03-01T08:38:59;10.27;;;4.25;;
68284;SDS011;55114;52.052;5.238;2023-03-01T08:41:26;9.63;;;4.28;;
68284;SDS011;55114;52.052;5.238;2023-03-01T08:43:54;10.57;;;4.30;;
68284;SDS011;55114;52.052;5.238;2023-03-01T08:46:28;8.57;;;4.10;;
68284;SDS011;55114;52.052;5.238;2023-03-01T08:48:56;8.95;;;4.40;;
68284;SDS011;55114;52.052;5.238;2023-03-01T08:51:23;9.27;;;4.32;;
68284;SDS011;55114;52.052;5.238;2023-03-01T08:53:51;9.65;;;4.40;;
68284;SDS011;55114;52.052;5.238;2023-03-01T08:56:18;10.38;;;4.38;;
68284;SDS011;55114;52.052;5.238;2023-03-01T08:58:46;10.68;;;4.40;;
68284;SDS011;55114;52.052;5.238;2023-03-01T09:01:15;9.15;;;3.88;;
68284;SDS011;55114;52.052;5.238;2023-03-01T09:03:43;10.05;;;4.00;;
68284;SDS011;55114;52.052;5.238;2023-03-01T09:06:10;9.45;;;4.22;;
68284;SDS011;55114;52.052;5.238;2023-03-01T09:08:38;8.65;;;4.03;;
68284;SDS011;55114;52.052;5.238;2023-03-01T09:11:06;8.05;;;3.90;;
68284;SDS011;55114;52.052;5.238;2023-03-01T09:13:34;10.50;;;3.63;;
68284;SDS011;55114;52.052;5.238;2023-03-01T09:16:03;8.93;;;3.65;;
68284;SDS011;55114;52.052;5.238;2023-03-01T09:18:31;8.77;;;3.70;;
68284;SDS011;55114;52.052;5.238;2023-03-01T09:23:37;7.70;;;3.33;;
68284;SDS011;55114;52.052;5.238;2023-03-01T09:26:06;7.70;;;3.50;;
68284;SDS011;55114;52.052;5.238;2023-03-01T09:28:38;9.13;;;3.97;;
68284;SDS011;55114;52.052;5.238;2023-03-01T09:31:07;8.43;;;3.38;;
68284;SDS011;55114;52.052;5.238;2023-03-01T09:33:34;8.07;;;3.20;;
68284;SDS011;55114;52.052;5.238;2023-03-01T09:36:03;7.38;;;3.20;;
68284;SDS011;55114;52.052;5.238;2023-03-01T09:38:31;8.40;;;3.92;;
68284;SDS011;55114;52.052;5.238;2023-03-01T09:40:59;6.63;;;3.22;;
68284;SDS011;55114;52.052;5.238;2023-03-01T09:43:47;6.93;;;2.90;;
68284;SDS011;55114;52.052;5.238;2023-03-01T09:46:22;5.85;;;2.50;;
68284;SDS011;55114;52.052;5.238;2023-03-01T09:48:52;6.57;;;3.08;;
68284;SDS011;55114;52.052;5.238;2023-03-01T09:51:32;8.68;;;3.30;;
68284;SDS011;55114;52.052;5.238;2023-03-01T09:54:03;7.95;;;3.20;;
68284;SDS011;55114;52.052;5.238;2023-03-01T09:56:39;6.40;;;2.60;;
68284;SDS011;55114;52.052;5.238;2023-03-01T09:59:16;6.60;;;3.20;;
68284;SDS011;55114;52.052;5.238;2023-03-01T10:04:40;8.20;;;3.30;;
68284;SDS011;55114;52.052;5.238;2023-03-01T10:09:40;8.25;;;3.03;;
68284;SDS011;55114;52.052;5.238;2023-03-01T10:12:10;7.20;;;3.10;;
68284;SDS011;55114;52.052;5.238;2023-03-01T10:14:39;6.78;;;2.90;;
68284;SDS011;55114;52.052;5.238;2023-03-01T10:17:17;8.57;;;2.70;;
68284;SDS011;55114;52.052;5.238;2023-03-01T10:19:46;5.63;;;2.70;;
68284;SDS011;55114;52.052;5.238;2023-03-01T10:22:22;7.18;;;3.03;;
68284;SDS011;55114;52.052;5.238;2023-03-01T10:24:51;8.15;;;2.63;;
68284;SDS011;55114;52.052;5.238;2023-03-01T10:27:22;7.18;;;2.30;;
68284;SDS011;55114;52.052;5.238;2023-03-01T10:29:57;6.07;;;2.25;;
68284;SDS011;55114;52.052;5.238;2023-03-01T10:32:26;5.18;;;1.98;;
68284;SDS011;55114;52.052;5.238;2023-03-01T10:34:53;5.55;;;2.45;;
68284;SDS011;55114;52.052;5.238;2023-03-01T10:37:21;8.00;;;2.35;;
68284;SDS011;55114;52.052;5.238;2023-03-01T10:39:54;5.88;;;2.38;;
68284;SDS011;55114;52.052;5.238;2023-03-01T10:42:26;6.78;;;2.65;;
68284;SDS011;55114;52.052;5.238;2023-03-01T10:44:54;6.75;;;2.30;;
68284;SDS011;55114;52.052;5.238;2023-03-01T10:47:23;6.57;;;2.20;;
68284;SDS011;55114;52.052;5.238;2023-03-01T10:49:52;5.95;;;2.83;;
68284;SDS011;55114;52.052;5.238;2023-03-01T10:52:20;7.93;;;2.50;;
68284;SDS011;55114;52.052;5.238;2023-03-01T10:54:57;8.40;;;2.45;;
68284;SDS011;55114;52.052;5.238;2023-03-01T11:00:24;7.28;;;2.42;;
68284;SDS011;55114;52.052;5.238;2023-03-01T11:05:21;6.68;;;2.90;;
68284;SDS011;55114;52.052;5.238;2023-03-01T11:07:57;5.97;;;2.58;;
68284;SDS011;55114;52.052;5.238;2023-03-01T11:10:28;7.20;;;2.88;;
68284;SDS011;55114;52.052;5.238;2023-03-01T11:13:13;7.38;;;2.50;;
68284;SDS011;55114;52.052;5.238;2023-03-01T11:15:42;7.32;;;2.70;;
68284;SDS011;55114;52.052;5.238;2023-03-01T11:18:20;6.20;;;2.38;;
68284;SDS011;55114;52.052;5.238;2023-03-01T11:20:56;5.35;;;2.50;;
68284;SDS011;55114;52.052;5.238;2023-03-01T11:23:25;5.72;;;1.98;;
68284;SDS011;55114;52.052;5.238;2023-03-01T11:25:55;4.88;;;2.05;;
68284;SDS011;55114;52.052;5.238;2023-03-01T11:28:23;4.53;;;1.92;;
68284;SDS011;55114;52.052;5.238;2023-03-01T11:33:34;5.15;;;2.20;;
68284;SDS011;55114;52.052;5.238;2023-03-01T11:38:34;4.80;;;2.03;;
68284;SDS011;55114;52.052;5.238;2023-03-01T11:41:06;5.70;;;2.10;;
68284;SDS011;55114;52.052;5.238;2023-03-01T11:51:29;5.50;;;2.00;;
68284;SDS011;55114;52.052;5.238;2023-03-01T11:56:38;5.65;;;2.38;;
68284;SDS011;55114;52.052;5.238;2023-03-01T12:02:15;7.22;;;2.20;;
68284;SDS011;55114;52.052;5.238;2023-03-01T12:07:30;4.90;;;1.75;;
68284;SDS011;55114;52.052;5.238;2023-03-01T12:12:58;6.45;;;2.30;;
68284;SDS011;55114;52.052;5.238;2023-03-01T12:15:42;5.43;;;2.03;;
68284;SDS011;55114;52.052;5.238;2023-03-01T12:20:47;4.70;;;1.90;;
68284;SDS011;55114;52.052;5.238;2023-03-01T12:26:26;5.85;;;2.33;;
68284;SDS011;55114;52.052;5.238;2023-03-01T12:28:57;6.22;;;2.35;;
68284;SDS011;55114;52.052;5.238;2023-03-01T12:44:41;6.07;;;2.72;;
68284;SDS011;55114;52.052;5.238;2023-03-01T12:49:45;7.35;;;2.72;;
68284;SDS011;55114;52.052;5.238;2023-03-01T12:52:28;6.85;;;2.53;;
68284;SDS011;55114;52.052;5.238;2023-03-01T12:55:00;7.20;;;2.53;;
68284;SDS011;55114;52.052;5.238;2023-03-01T12:57:40;5.47;;;2.50;;
68284;SDS011;55114;52.052;5.238;2023-03-01T13:02:48;5.15;;;2.33;;
68284;SDS011;55114;52.052;5.238;2023-03-01T13:07:48;6.33;;;2.20;;
68284;SDS011;55114;52.052;5.238;2023-03-01T13:15:25;6.10;;;2.30;;
68284;SDS011;55114;52.052;5.238;2023-03-01T13:18:01;6.45;;;2.60;;
68284;SDS011;55114;52.052;5.238;2023-03-01T13:31:04;6.30;;;2.70;;
68284;SDS011;55114;52.052;5.238;2023-03-01T13:36:00;5.65;;;2.30;;
68284;SDS011;55114;52.052;5.238;2023-03-01T13:38:47;4.97;;;2.30;;
68284;SDS011;55114;52.052;5.238;2023-03-01T13:41:15;5.63;;;2.40;;
68284;SDS011;55114;52.052;5.238;2023-03-01T13:43:44;5.53;;;2.25;;
68284;SDS011;55114;52.052;5.238;2023-03-01T13:46:18;6.73;;;2.20;;
68284;SDS011;55114;52.052;5.238;2023-03-01T13:48:54;5.47;;;2.33;;
68284;SDS011;55114;52.052;5.238;2023-03-01T13:51:23;6.05;;;2.45;;
68284;SDS011;55114;52.052;5.238;2023-03-01T13:53:52;5.47;;;2.30;;
68284;SDS011;55114;52.052;5.238;2023-03-01T13:56:27;6.40;;;2.80;;
68284;SDS011;55114;52.052;5.238;2023-03-01T13:58:59;5.97;;;2.50;;
68284;SDS011;55114;52.052;5.238;2023-03-01T14:01:29;6.00;;;2.40;;
68284;SDS011;55114;52.052;5.238;2023-03-01T14:03:58;6.57;;;2.40;;
68284;SDS011;55114;52.052;5.238;2023-03-01T14:06:29;6.72;;;2.45;;
68284;SDS011;55114;52.052;5.238;2023-03-01T14:17:04;5.53;;;2.70;;
68284;SDS011;55114;52.052;5.238;2023-03-01T14:19:35;6.93;;;2.70;;
68284;SDS011;55114;52.052;5.238;2023-03-01T14:24:50;6.10;;;2.70;;
68284;SDS011;55114;52.052;5.238;2023-03-01T14:27:17;5.43;;;2.50;;
68284;SDS011;55114;52.052;5.238;2023-03-01T14:30:21;6.32;;;2.45;;
68284;SDS011;55114;52.052;5.238;2023-03-01T14:32:39;5.60;;;2.72;;
68284;SDS011;55114;52.052;5.238;2023-03-01T14:38:19;5.33;;;2.63;;
68284;SDS011;55114;52.052;5.238;2023-03-01T14:40:47;6.15;;;2.47;;
68284;SDS011;55114;52.052;5.238;2023-03-01T14:43:17;6.25;;;2.70;;
68284;SDS011;55114;52.052;5.238;2023-03-01T14:45:48;5.72;;;2.40;;
68284;SDS011;55114;52.052;5.238;2023-03-01T14:48:16;4.50;;;2.33;;
68284;SDS011;55114;52.052;5.238;2023-03-01T14:50:44;5.57;;;2.23;;
68284;SDS011;55114;52.052;5.238;2023-03-01T14:53:19;5.57;;;2.50;;
68284;SDS011;55114;52.052;5.238;2023-03-01T14:55:59;6.13;;;2.90;;
68284;SDS011;55114;52.052;5.238;2023-03-01T14:58:31;10.93;;;2.50;;
68284;SDS011;55114;52.052;5.238;2023-03-01T15:01:01;6.82;;;2.67;;
68284;SDS011;55114;52.052;5.238;2023-03-01T15:03:40;5.77;;;2.50;;
68284;SDS011;55114;52.052;5.238;2023-03-01T15:06:14;5.63;;;2.60;;
68284;SDS011;55114;52.052;5.238;2023-03-01T15:08:42;5.07;;;2.50;;
68284;SDS011;55114;52.052;5.238;2023-03-01T15:13:42;5.18;;;2.47;;
68284;SDS011;55114;52.052;5.238;2023-03-01T15:18:45;6.30;;;2.80;;
68284;SDS011;55114;52.052;5.238;2023-03-01T15:21:26;10.52;;;2.92;;
68284;SDS011;55114;52.052;5.238;2023-03-01T15:23:56;7.05;;;2.88;;
68284;SDS011;55114;52.052;5.238;2023-03-01T15:26:29;7.20;;;3.20;;
68284;SDS011;55114;52.052;5.238;2023-03-01T15:28:58;5.93;;;3.03;;
68284;SDS011;55114;52.052;5.238;2023-03-01T15:31:27;10.82;;;4.68;;
68284;SDS011;55114;52.052;5.238;2023-03-01T15:36:45;8.98;;;3.40;;
68284;SDS011;55114;52.052;5.238;2023-03-01T15:42:06;10.98;;;5.28;;
68284;SDS011;55114;52.052;5.238;2023-03-01T15:44:35;7.13;;;3.38;;
68284;SDS011;55114;52.052;5.238;2023-03-01T15:47:22;7.90;;;3.03;;
68284;SDS011;55114;52.052;5.238;2023-03-01T15:49:51;6.50;;;2.78;;
68284;SDS011;55114;52.052;5.238;2023-03-01T15:52:22;7.70;;;3.83;;
68284;SDS011;55114;52.052;5.238;2023-03-01T15:54:59;6.43;;;2.40;;
68284;SDS011;55114;52.052;5.238;2023-03-01T15:57:27;5.85;;;2.50;;
68284;SDS011;55114;52.052;5.238;2023-03-01T15:59:54;8.35;;;2.85;;
68284;SDS011;55114;52.052;5.238;2023-03-01T16:02:23;5.68;;;2.50;;
68284;SDS011;55114;52.052;5.238;2023-03-01T16:04:51;8.15;;;2.63;;
68284;SDS011;55114;52.052;5.238;2023-03-01T16:07:19;8.05;;;3.20;;
68284;SDS011;55114;52.052;5.238;2023-03-01T16:09:47;11.57;;;5.47;;
68284;SDS011;55114;52.052;5.238;2023-03-01T16:12:15;11.00;;;4.22;;
68284;SDS011;55114;52.052;5.238;2023-03-01T16:14:43;7.78;;;3.40;;
68284;SDS011;55114;52.052;5.238;2023-03-01T16:17:11;6.10;;;2.92;;
68284;SDS011;55114;52.052;5.238;2023-03-01T16:19:39;6.85;;;3.20;;
68284;SDS011;55114;52.052;5.238;2023-03-01T16:22:09;8.75;;;4.30;;
68284;SDS011;55114;52.052;5.238;2023-03-01T16:24:36;7.72;;;3.38;;
68284;SDS011;55114;52.052;5.238;2023-03-01T16:27:04;9.00;;;3.50;;
68284;SDS011;55114;52.052;5.238;2023-03-01T16:29:31;6.90;;;2.72;;
68284;SDS011;55114;52.052;5.238;2023-03-01T16:32:02;9.13;;;3.60;;
68284;SDS011;55114;52.052;5.238;2023-03-01T16:34:29;8.48;;;3.80;;
68284;SDS011;55114;52.052;5.238;2023-03-01T16:36:57;30.70;;;18.35;;
68284;SDS011;55114;52.052;5.238;2023-03-01T16:39:25;11.13;;;5.63;;
68284;SDS011;55114;52.052;5.238;2023-03-01T16:41:53;79.10;;;42.88;;
68284;SDS011;55114;52.052;5.238;2023-03-01T16:44:20;14.57;;;7.47;;
68284;SDS011;55114;52.052;5.238;2023-03-01T16:46:47;8.75;;;4.70;;
68284;SDS011;55114;52.052;5.238;2023-03-01T16:49:14;8.95;;;3.60;;
68284;SDS011;55114;52.052;5.238;2023-03-01T16:51:42;6.55;;;2.92;;